EW5534 Weather Reports


Display with metric or nautical units.
time (UTC)temp
F
wind
direction
speed
MPH
gust
MPH
rain 1hr
in
rain 24hr
in
rain mn
in
humidity
%
barometer
mb
20240621001548 81 182 0.0 3.0 0.00 0.00 0.00 62 1026.5
20240621000043 82 128 3.0 9.0 0.00 0.00 0.00 61 1026.4
20240620234550 83 145 1.0 4.0 0.00 0.00 0.00 61 1026.5
20240620233042 83 228 2.0 7.0 0.00 0.00 0.00 61 1026.6
20240620231542 84 241 1.0 4.0 0.00 0.00 0.00 60 1026.6
20240620230040 85 265 2.0 6.0 0.00 0.00 0.00 59 1026.5
20240620224551 85 244 2.0 6.0 0.00 0.00 0.00 58 1026.5
20240620223040 86 228 3.0 6.0 0.00 0.00 0.00 56 1026.6
20240620221539 87 235 3.0 8.0 0.00 0.00 0.00 55 1026.7
20240620220035 88 262 2.0 6.0 0.00 0.00 0.00 54 1026.8
20240620214542 89 178 3.0 8.0 0.00 0.00 0.00 53 1026.8
20240620213033 90 306 2.0 7.0 0.00 0.00 0.00 52 1026.9
20240620211532 91 155 2.0 7.0 0.00 0.00 0.00 51 1027.0
20240620210031 92 246 2.0 8.0 0.00 0.00 0.00 47 1027.1
20240620204528 91 313 1.0 7.0 0.00 0.00 0.00 49 1027.2
20240620203027 92 246 4.0 8.0 0.00 0.00 0.00 45 1027.4
20240620201524 91 275 3.0 9.0 0.00 0.00 0.00 46 1027.5
20240620200022 91 221 1.0 8.0 0.00 0.00 0.00 48 1027.6
20240620194522 91 225 4.0 10.0 0.00 0.00 0.00 48 1027.8
20240620193018 91 211 4.0 8.0 0.00 0.00 0.00 47 1027.9
20240620191531 91 205 1.0 5.0 0.00 0.00 0.00 48 1027.9
20240620190016 91 178 2.0 5.0 0.00 0.00 0.00 47 1028.3
20240620184512 91 186 3.0 6.0 0.00 0.00 0.00 47 1028.4
20240620183009 91 225 3.0 5.0 0.00 0.00 0.00 46 1028.6
20240620181508 92 205 2.0 7.0 0.00 0.00 0.00 45 1028.7
20240620180005 92 211 2.0 6.0 0.00 0.00 0.00 46 1028.9
20240620174503 92 298 1.0 5.0 0.00 0.00 0.00 47 1029.0
20240620173059 92 257 2.0 6.0 0.00 0.00 0.00 48 1029.1
20240620171600 91 192 3.0 9.0 0.00 0.00 0.00 48 1029.2
20240620170052 91 201 4.0 8.0 0.00 0.00 0.00 49 1029.4
20240620164548 90 221 2.0 7.0 0.00 0.00 0.00 50 1029.6
20240620163045 89 13 3.0 9.0 0.00 0.00 0.00 52 1029.7
20240620161547 89 229 3.0 7.0 0.00 0.00 0.00 51 1029.8
20240620160040 89 95 2.0 5.0 0.00 0.00 0.00 55 1029.9
20240620154547 87 229 1.0 9.0 0.00 0.00 0.00 58 1030.0
20240620153036 87 94 3.0 7.0 0.00 0.00 0.00 57 1030.2
20240620151544 86 219 2.0 5.0 0.00 0.00 0.00 58 1030.2
20240620150030 85 258 2.0 7.0 0.00 0.00 0.00 59 1030.2
20240620144526 84 282 2.0 4.0 0.00 0.00 0.00 61 1030.3
20240620143027 83 246 2.0 6.0 0.00 0.00 0.00 62 1030.2
20240620141526 82 245 2.0 7.0 0.00 0.00 0.00 63 1030.3
20240620140018 81 250 2.0 4.0 0.00 0.00 0.00 64 1030.2
20240620134516 81 242 2.0 5.0 0.00 0.00 0.00 65 1030.4
20240620133017 80 54 1.0 5.0 0.00 0.00 0.00 66 1030.3
20240620131514 79 149 2.0 5.0 0.00 0.00 0.00 67 1030.3
20240620130007 78 206 1.0 6.0 0.00 0.00 0.00 68 1030.3
20240620124505 78 342 1.0 3.0 0.00 0.00 0.00 70 1030.4
20240620123004 76 223 1.0 5.0 0.00 0.00 0.00 71 1030.3
20240620121559 75 198 2.0 5.0 0.00 0.00 0.00 72 1030.5
20240620120054 75 219 1.0 4.0 0.00 0.00 0.00 73 1030.5
20240620114552 74 300 1.0 4.0 0.00 0.00 0.00 74 1030.5
20240620113047 73 300 0.0 3.0 0.00 0.00 0.00 75 1030.3
20240620111545 72 224 0.0 4.0 0.00 0.00 0.00 77 1030.3
20240620110043 71 215 0.0 2.0 0.00 0.00 0.00 78 1030.2
20240620104550 70 256 1.0 4.0 0.00 0.00 0.00 79 1030.1
20240620103036 70 315 0.0 2.0 0.00 0.00 0.00 78 1030.2
20240620101533 70 157 0.0 1.0 0.00 0.00 0.00 78 1030.0
20240620100030 70 268 0.0 3.0 0.00 0.00 0.00 78 1030.1
20240620094529 70 188 0.0 3.0 0.00 0.00 0.00 78 1030.2
20240620093025 70 211 0.0 2.0 0.00 0.00 0.00 77 1030.0
20240620091525 70 269 0.0 3.0 0.00 0.00 0.00 76 1029.9
20240620090026 71 217 0.0 2.0 0.00 0.00 0.00 75 1029.9
20240620084523 71 257 0.0 2.0 0.00 0.00 0.00 76 1029.9
20240620083030 71 103 0.0 4.0 0.00 0.00 0.00 76 1029.8
20240620081526 71 207 0.0 1.0 0.00 0.00 0.00 76 1030.0
20240620080029 71 201 1.0 4.0 0.00 0.00 0.00 75 1029.8
20240620074522 71 223 2.0 7.0 0.00 0.00 0.00 75 1029.8
20240620073018 71 175 0.0 4.0 0.00 0.00 0.00 75 1029.8
20240620071521 72 191 0.0 4.0 0.00 0.00 0.00 74 1029.9
20240620070016 72 230 1.0 3.0 0.00 0.00 0.00 73 1029.9
20240620064517 72 199 1.0 2.0 0.00 0.00 0.00 73 1029.9
20240620063015 72 219 0.0 2.0 0.00 0.00 0.00 73 1029.9
20240620061513 72 185 0.0 3.0 0.00 0.00 0.00 73 1030.0
20240620060010 72 213 0.0 5.0 0.00 0.00 0.00 72 1030.1
20240620054510 72 167 0.0 4.0 0.00 0.00 0.00 72 1030.2
20240620053019 73 240 0.0 3.0 0.00 0.00 0.00 73 1030.2
20240620051507 73 168 0.0 5.0 0.00 0.00 0.00 73 1030.1
20240620050003 72 180 1.0 4.0 0.00 0.00 0.00 76 1030.3
20240620044559 70 143 0.0 2.0 0.00 0.00 0.00 80 1030.3
20240620043100 70 110 0.0 2.0 0.00 0.00 0.00 81 1030.5
20240620041614 70 139 0.0 3.0 0.00 0.00 0.00 81 1030.5
20240620040051 69 70 0.0 2.0 0.00 0.00 0.00 82 1030.5
20240620034559 69 70 0.0 1.0 0.00 0.00 0.00 81 1030.7
20240620033059 70 70 0.0 2.0 0.00 0.00 0.00 79 1030.8
20240620031549 71 83 0.0 2.0 0.00 0.00 0.00 77 1030.9
20240620030055 71 82 0.0 2.0 0.00 0.00 0.00 75 1031.0
20240620024548 72 107 1.0 2.0 0.00 0.00 0.00 73 1030.9
20240620023047 73 124 1.0 2.0 0.00 0.00 0.00 70 1030.8
20240620021546 73 64 1.0 3.0 0.00 0.00 0.00 68 1031.0
20240620020048 74 236 2.0 5.0 0.00 0.00 0.00 65 1030.9
20240620014546 74 217 1.0 6.0 0.00 0.00 0.00 63 1030.8
20240620013047 75 172 1.0 7.0 0.00 0.00 0.00 61 1030.6
20240620011554 75 192 3.0 8.0 0.00 0.00 0.00 59 1030.5
20240620010044 76 152 3.0 8.0 0.00 0.00 0.00 55 1030.2
20240620004549 76 134 2.0 7.0 0.00 0.00 0.00 50 1030.1
20240620003102 77 145 3.0 8.0 0.00 0.00 0.00 47 1030.1